Terminal Aerodrome Forecast
Issued by NWS

Home | Current Version | Previous Version | Text Only | Print | Product List | Glossary Off
Versions: 1 2 3 4 5 6 7 8 9 10 11 12 13 14 15 16 17 18

000
FTUS43 KIWX 130800 AAA
TAFSBN
TAF AMD
KSBN 130859Z 1309/1406 32010KT P6SM -RA SCT008 OVC015
      TEMPO 1309/1311 5SM -RA BR BKN009
     FM131200 34011KT P6SM OVC015
     FM131500 33008KT P6SM BKN035
     FM140000 VRB03KT P6SM FEW035=

USA.gov is the U.S. government's official web portal to all federal, state and local government web resources and services.